Aviation Digital Data Service (ADDS)

Output produced by METARs form (0651 UTC 22 October 2018)
found at http://www.aviationweather.gov/metar/data/
 
KGSO 220529Z 2206/2306 00000KT P6SM SKC 
     FM221800 22007KT P6SM SKC